sensor_id;sensor_type;location;lat;lon;timestamp;pressure;altitude;pressure_sealevel;temperature;humidity
21185;BME280;18176;49.502;11.754;2023-04-20T00:00:58;96967.47;;;8.94;54.30
21185;BME280;18176;49.502;11.754;2023-04-20T00:04:59;96959.25;;;9.02;54.11
21185;BME280;18176;49.502;11.754;2023-04-20T00:09:03;96959.84;;;9.04;54.42
21185;BME280;18176;49.502;11.754;2023-04-20T00:13:06;96962.03;;;8.89;54.62
21185;BME280;18176;49.502;11.754;2023-04-20T00:17:07;96961.50;;;8.81;54.48
21185;BME280;18176;49.502;11.754;2023-04-20T00:21:08;96942.63;;;8.77;54.26
21185;BME280;18176;49.502;11.754;2023-04-20T00:25:11;96948.22;;;8.87;54.07
21185;BME280;18176;49.502;11.754;2023-04-20T00:29:12;96943.31;;;8.91;53.72
21185;BME280;18176;49.502;11.754;2023-04-20T00:33:13;96924.03;;;8.66;54.46
21185;BME280;18176;49.502;11.754;2023-04-20T00:37:16;96938.16;;;8.78;54.05
21185;BME280;18176;49.502;11.754;2023-04-20T00:41:20;96935.00;;;8.69;53.87
21185;BME280;18176;49.502;11.754;2023-04-20T00:45:21;96934.25;;;8.62;53.89
21185;BME280;18176;49.502;11.754;2023-04-20T00:49:24;96935.41;;;8.66;53.91
21185;BME280;18176;49.502;11.754;2023-04-20T00:53:26;96931.16;;;8.65;54.12
21185;BME280;18176;49.502;11.754;2023-04-20T00:57:30;96934.38;;;8.49;54.06
21185;BME280;18176;49.502;11.754;2023-04-20T01:01:32;96929.63;;;8.33;54.43
21185;BME280;18176;49.502;11.754;2023-04-20T01:05:33;96921.13;;;8.24;54.72
21185;BME280;18176;49.502;11.754;2023-04-20T01:09:37;96913.94;;;8.07;54.80
21185;BME280;18176;49.502;11.754;2023-04-20T01:13:42;96916.75;;;8.12;55.59
21185;BME280;18176;49.502;11.754;2023-04-20T01:17:45;96910.97;;;7.97;55.15
21185;BME280;18176;49.502;11.754;2023-04-20T01:21:46;96907.16;;;7.93;55.30
21185;BME280;18176;49.502;11.754;2023-04-20T01:25:49;96911.81;;;7.91;55.24
21185;BME280;18176;49.502;11.754;2023-04-20T01:29:51;96907.91;;;8.00;55.85
21185;BME280;18176;49.502;11.754;2023-04-20T01:33:55;96901.34;;;8.09;55.55
21185;BME280;18176;49.502;11.754;2023-04-20T01:37:56;96901.44;;;8.27;55.02
21185;BME280;18176;49.502;11.754;2023-04-20T01:41:59;96894.78;;;8.18;54.84
21185;BME280;18176;49.502;11.754;2023-04-20T01:46:03;96898.72;;;8.09;54.82
21185;BME280;18176;49.502;11.754;2023-04-20T01:50:05;96891.94;;;8.19;56.50
21185;BME280;18176;49.502;11.754;2023-04-20T01:54:06;96894.94;;;8.23;56.16
21185;BME280;18176;49.502;11.754;2023-04-20T01:58:10;96883.03;;;8.14;56.00
21185;BME280;18176;49.502;11.754;2023-04-20T02:02:11;96892.25;;;8.05;55.95
21185;BME280;18176;49.502;11.754;2023-04-20T02:06:12;96891.66;;;8.03;55.67
21185;BME280;18176;49.502;11.754;2023-04-20T02:10:14;96891.91;;;7.95;55.33
21185;BME280;18176;49.502;11.754;2023-04-20T02:14:19;96901.50;;;7.89;55.15
21185;BME280;18176;49.502;11.754;2023-04-20T02:18:20;96894.41;;;7.83;55.62
21185;BME280;18176;49.502;11.754;2023-04-20T02:22:21;96898.72;;;7.77;55.65
21185;BME280;18176;49.502;11.754;2023-04-20T02:26:21;96891.00;;;7.76;55.41
21185;BME280;18176;49.502;11.754;2023-04-20T02:30:24;96867.13;;;7.71;54.83
21185;BME280;18176;49.502;11.754;2023-04-20T02:34:26;96882.47;;;7.80;55.22
21185;BME280;18176;49.502;11.754;2023-04-20T02:38:27;96880.50;;;7.69;55.96
21185;BME280;18176;49.502;11.754;2023-04-20T02:42:29;96857.06;;;7.61;56.00
21185;BME280;18176;49.502;11.754;2023-04-20T02:46:35;96856.47;;;7.84;55.33
21185;BME280;18176;49.502;11.754;2023-04-20T02:50:42;96864.81;;;7.81;56.76
21185;BME280;18176;49.502;11.754;2023-04-20T02:55:07;96881.91;;;7.72;56.27
21185;BME280;18176;49.502;11.754;2023-04-20T02:59:10;96872.53;;;7.83;55.23
21185;BME280;18176;49.502;11.754;2023-04-20T03:03:25;96867.56;;;7.93;54.71
21185;BME280;18176;49.502;11.754;2023-04-20T03:07:27;96857.28;;;7.85;54.78
21185;BME280;18176;49.502;11.754;2023-04-20T03:11:35;96853.38;;;7.94;55.81
21185;BME280;18176;49.502;11.754;2023-04-20T03:15:38;96853.84;;;8.09;57.19
21185;BME280;18176;49.502;11.754;2023-04-20T03:19:52;96860.41;;;8.31;57.34
21185;BME280;18176;49.502;11.754;2023-04-20T03:23:55;96861.28;;;8.43;55.93
21185;BME280;18176;49.502;11.754;2023-04-20T03:27:57;96856.75;;;8.50;55.07
21185;BME280;18176;49.502;11.754;2023-04-20T03:31:58;96849.13;;;8.42;54.53
21185;BME280;18176;49.502;11.754;2023-04-20T03:36:03;96856.38;;;8.46;54.54
21185;BME280;18176;49.502;11.754;2023-04-20T03:40:08;96854.69;;;8.52;53.73
21185;BME280;18176;49.502;11.754;2023-04-20T03:44:08;96855.72;;;8.33;54.16
21185;BME280;18176;49.502;11.754;2023-04-20T03:48:10;96859.19;;;8.52;54.32
21185;BME280;18176;49.502;11.754;2023-04-20T03:52:14;96853.81;;;8.40;54.96
21185;BME280;18176;49.502;11.754;2023-04-20T03:56:14;96855.47;;;8.10;54.99
21185;BME280;18176;49.502;11.754;2023-04-20T04:00:16;96860.59;;;8.05;54.13
21185;BME280;18176;49.502;11.754;2023-04-20T04:04:17;96862.47;;;7.98;55.00
21185;BME280;18176;49.502;11.754;2023-04-20T04:08:21;96856.53;;;8.02;55.15
21185;BME280;18176;49.502;11.754;2023-04-20T04:12:23;96858.25;;;7.90;54.78
21185;BME280;18176;49.502;11.754;2023-04-20T04:16:24;96855.63;;;7.90;56.19
21185;BME280;18176;49.502;11.754;2023-04-20T04:20:24;96864.72;;;8.19;55.93
21185;BME280;18176;49.502;11.754;2023-04-20T04:24:28;96850.38;;;8.15;55.71
21185;BME280;18176;49.502;11.754;2023-04-20T04:28:40;96860.75;;;8.10;55.23
21185;BME280;18176;49.502;11.754;2023-04-20T04:32:47;96854.25;;;8.12;55.18
21185;BME280;18176;49.502;11.754;2023-04-20T04:36:49;96859.66;;;8.17;55.25
21185;BME280;18176;49.502;11.754;2023-04-20T04:41:04;96855.41;;;8.16;55.39
21185;BME280;18176;49.502;11.754;2023-04-20T04:45:06;96857.38;;;8.27;54.70
21185;BME280;18176;49.502;11.754;2023-04-20T04:49:10;96858.19;;;8.28;54.66
21185;BME280;18176;49.502;11.754;2023-04-20T04:53:11;96852.66;;;8.05;54.82
21185;BME280;18176;49.502;11.754;2023-04-20T04:57:14;96849.91;;;7.93;55.03
21185;BME280;18176;49.502;11.754;2023-04-20T05:01:18;96845.50;;;7.87;55.38
21185;BME280;18176;49.502;11.754;2023-04-20T05:05:19;96838.13;;;7.96;55.11
21185;BME280;18176;49.502;11.754;2023-04-20T05:09:19;96851.84;;;8.04;55.18
21185;BME280;18176;49.502;11.754;2023-04-20T05:13:22;96858.75;;;8.05;55.07
21185;BME280;18176;49.502;11.754;2023-04-20T05:17:25;96859.72;;;8.11;55.06
21185;BME280;18176;49.502;11.754;2023-04-20T05:21:25;96864.63;;;8.32;55.29
21185;BME280;18176;49.502;11.754;2023-04-20T05:25:26;96863.63;;;8.33;55.07
21185;BME280;18176;49.502;11.754;2023-04-20T05:29:29;96871.09;;;8.36;54.96
21185;BME280;18176;49.502;11.754;2023-04-20T05:33:30;96860.78;;;8.53;55.30
21185;BME280;18176;49.502;11.754;2023-04-20T05:37:32;96863.94;;;8.61;54.80
21185;BME280;18176;49.502;11.754;2023-04-20T05:41:32;96861.38;;;8.73;55.59
21185;BME280;18176;49.502;11.754;2023-04-20T05:45:36;96861.03;;;9.05;55.28
21185;BME280;18176;49.502;11.754;2023-04-20T05:49:37;96866.00;;;9.32;55.23
21185;BME280;18176;49.502;11.754;2023-04-20T05:53:37;96870.66;;;9.48;54.51
21185;BME280;18176;49.502;11.754;2023-04-20T05:57:38;96860.31;;;9.58;55.13
21185;BME280;18176;49.502;11.754;2023-04-20T06:01:43;96861.50;;;9.62;55.64
21185;BME280;18176;49.502;11.754;2023-04-20T06:05:44;96853.06;;;9.83;55.44
21185;BME280;18176;49.502;11.754;2023-04-20T06:09:45;96866.16;;;10.19;55.14
21185;BME280;18176;49.502;11.754;2023-04-20T06:13:45;96866.63;;;10.51;54.91
21185;BME280;18176;49.502;11.754;2023-04-20T06:17:49;96866.03;;;10.84;54.59
21185;BME280;18176;49.502;11.754;2023-04-20T06:21:49;96860.34;;;11.03;53.16
21185;BME280;18176;49.502;11.754;2023-04-20T06:25:50;96870.13;;;11.03;53.20
21185;BME280;18176;49.502;11.754;2023-04-20T06:29:51;96859.13;;;11.34;52.93
21185;BME280;18176;49.502;11.754;2023-04-20T06:33:54;96863.50;;;11.68;52.47
21185;BME280;18176;49.502;11.754;2023-04-20T06:37:55;96855.78;;;11.83;51.32
21185;BME280;18176;49.502;11.754;2023-04-20T06:41:56;96847.94;;;12.05;51.09
21185;BME280;18176;49.502;11.754;2023-04-20T06:45:57;96852.59;;;12.48;49.32
21185;BME280;18176;49.502;11.754;2023-04-20T06:50:05;96854.50;;;12.69;49.06
21185;BME280;18176;49.502;11.754;2023-04-20T06:54:06;96845.38;;;13.03;48.42
21185;BME280;18176;49.502;11.754;2023-04-20T06:58:08;96848.38;;;13.28;46.94
21185;BME280;18176;49.502;11.754;2023-04-20T07:02:09;96824.81;;;13.15;46.85
21185;BME280;18176;49.502;11.754;2023-04-20T07:06:13;96851.84;;;13.51;46.70
21185;BME280;18176;49.502;11.754;2023-04-20T07:10:15;96849.59;;;13.38;46.70
21185;BME280;18176;49.502;11.754;2023-04-20T07:14:15;96850.78;;;13.52;46.25
21185;BME280;18176;49.502;11.754;2023-04-20T07:18:16;96860.22;;;13.91;45.37
21185;BME280;18176;49.502;11.754;2023-04-20T07:22:24;96846.72;;;13.71;45.43
21185;BME280;18176;49.502;11.754;2023-04-20T07:26:25;96861.91;;;13.97;44.73
21185;BME280;18176;49.502;11.754;2023-04-20T07:30:25;96862.66;;;14.24;44.33
21185;BME280;18176;49.502;11.754;2023-04-20T07:34:27;96869.69;;;14.03;44.65
21185;BME280;18176;49.502;11.754;2023-04-20T07:38:30;96866.72;;;14.63;43.87
21185;BME280;18176;49.502;11.754;2023-04-20T07:42:32;96856.13;;;14.78;42.34
21185;BME280;18176;49.502;11.754;2023-04-20T07:46:33;96853.09;;;14.55;43.44
21185;BME280;18176;49.502;11.754;2023-04-20T07:50:34;96862.81;;;14.39;43.37
21185;BME280;18176;49.502;11.754;2023-04-20T07:54:38;96866.91;;;14.94;43.06
21185;BME280;18176;49.502;11.754;2023-04-20T07:58:42;96863.59;;;15.23;41.57
21185;BME280;18176;49.502;11.754;2023-04-20T08:02:43;96870.75;;;15.18;42.46
21185;BME280;18176;49.502;11.754;2023-04-20T08:06:45;96870.16;;;15.06;41.98
21185;BME280;18176;49.502;11.754;2023-04-20T08:10:48;96869.66;;;15.09;42.44
21185;BME280;18176;49.502;11.754;2023-04-20T08:14:49;96847.00;;;16.18;40.79
21185;BME280;18176;49.502;11.754;2023-04-20T08:18:49;96826.97;;;16.06;40.36
21185;BME280;18176;49.502;11.754;2023-04-20T08:22:50;96845.41;;;16.38;40.72
21185;BME280;18176;49.502;11.754;2023-04-20T08:26:53;96844.72;;;15.45;41.80
21185;BME280;18176;49.502;11.754;2023-04-20T08:30:55;96842.47;;;16.29;40.64
21185;BME280;18176;49.502;11.754;2023-04-20T08:34:56;96839.00;;;16.13;40.11
21185;BME280;18176;49.502;11.754;2023-04-20T08:39:05;96843.53;;;16.53;40.39
21185;BME280;18176;49.502;11.754;2023-04-20T08:43:09;96836.28;;;16.79;39.57
21185;BME280;18176;49.502;11.754;2023-04-20T08:47:11;96847.09;;;17.33;38.75
21185;BME280;18176;49.502;11.754;2023-04-20T08:51:14;96835.97;;;17.06;38.88
21185;BME280;18176;49.502;11.754;2023-04-20T08:55:17;96837.81;;;17.10;38.72
21185;BME280;18176;49.502;11.754;2023-04-20T08:59:23;96827.66;;;16.97;38.64
21185;BME280;18176;49.502;11.754;2023-04-20T09:03:32;96836.06;;;16.15;39.95
21185;BME280;18176;49.502;11.754;2023-04-20T09:07:36;96825.63;;;16.18;39.59
21185;BME280;18176;49.502;11.754;2023-04-20T09:11:37;96834.19;;;16.51;39.73
21185;BME280;18176;49.502;11.754;2023-04-20T09:15:41;96829.25;;;17.08;38.71
21185;BME280;18176;49.502;11.754;2023-04-20T09:19:44;96831.13;;;17.03;38.65
21185;BME280;18176;49.502;11.754;2023-04-20T09:23:56;96838.47;;;16.27;39.60
21185;BME280;18176;49.502;11.754;2023-04-20T09:27:59;96832.56;;;16.40;40.01
21185;BME280;18176;49.502;11.754;2023-04-20T09:32:03;96828.81;;;16.00;40.86
21185;BME280;18176;49.502;11.754;2023-04-20T09:36:05;96823.19;;;16.67;39.84
21185;BME280;18176;49.502;11.754;2023-04-20T09:40:09;96820.81;;;16.56;39.77
21185;BME280;18176;49.502;11.754;2023-04-20T09:44:11;96818.59;;;16.93;39.70
21185;BME280;18176;49.502;11.754;2023-04-20T09:48:15;96805.22;;;16.83;39.57
21185;BME280;18176;49.502;11.754;2023-04-20T09:52:18;96802.81;;;17.50;39.41
21185;BME280;18176;49.502;11.754;2023-04-20T09:56:18;96808.13;;;17.66;38.33
21185;BME280;18176;49.502;11.754;2023-04-20T10:00:21;96801.81;;;17.31;38.63
21185;BME280;18176;49.502;11.754;2023-04-20T10:04:25;96788.75;;;17.74;37.82
21185;BME280;18176;49.502;11.754;2023-04-20T10:08:25;96792.28;;;18.37;37.03
21185;BME280;18176;49.502;11.754;2023-04-20T10:12:26;96793.72;;;18.24;37.80
21185;BME280;18176;49.502;11.754;2023-04-20T10:16:29;96786.91;;;17.69;38.01
21185;BME280;18176;49.502;11.754;2023-04-20T10:20:32;96779.88;;;17.78;38.06
21185;BME280;18176;49.502;11.754;2023-04-20T10:24:34;96777.69;;;17.36;38.81
21185;BME280;18176;49.502;11.754;2023-04-20T10:28:39;96769.16;;;17.34;39.36
21185;BME280;18176;49.502;11.754;2023-04-20T10:32:41;96755.09;;;17.58;38.85
21185;BME280;18176;49.502;11.754;2023-04-20T10:36:44;96756.19;;;17.57;39.01
21185;BME280;18176;49.502;11.754;2023-04-20T10:40:45;96751.66;;;17.91;38.21
21185;BME280;18176;49.502;11.754;2023-04-20T10:44:48;96736.09;;;17.05;39.71
21185;BME280;18176;49.502;11.754;2023-04-20T10:48:54;96728.72;;;16.82;40.44
21185;BME280;18176;49.502;11.754;2023-04-20T10:52:58;96725.41;;;17.05;40.11
21185;BME280;18176;49.502;11.754;2023-04-20T10:56:58;96719.78;;;17.02;39.76
21185;BME280;18176;49.502;11.754;2023-04-20T11:01:01;96722.06;;;17.28;39.77
21185;BME280;18176;49.502;11.754;2023-04-20T11:05:10;96700.63;;;17.28;39.65
21185;BME280;18176;49.502;11.754;2023-04-20T11:09:22;96699.03;;;17.27;40.01
21185;BME280;18176;49.502;11.754;2023-04-20T11:13:26;96703.47;;;18.38;38.27
21185;BME280;18176;49.502;11.754;2023-04-20T11:17:37;96699.34;;;17.60;38.97
21185;BME280;18176;49.502;11.754;2023-04-20T11:21:40;96707.19;;;17.51;39.27
21185;BME280;18176;49.502;11.754;2023-04-20T11:25:51;96709.31;;;17.10;39.91
21185;BME280;18176;49.502;11.754;2023-04-20T11:29:56;96682.06;;;16.29;41.43
21185;BME280;18176;49.502;11.754;2023-04-20T11:34:02;96685.63;;;15.74;43.00
21185;BME280;18176;49.502;11.754;2023-04-20T11:38:04;96707.97;;;15.38;43.92
21185;BME280;18176;49.502;11.754;2023-04-20T11:42:08;96703.38;;;16.49;42.25
21185;BME280;18176;49.502;11.754;2023-04-20T11:46:16;96708.69;;;16.69;41.45
21185;BME280;18176;49.502;11.754;2023-04-20T11:50:17;96703.66;;;16.48;41.88
21185;BME280;18176;49.502;11.754;2023-04-20T11:54:18;96689.78;;;16.31;42.16
21185;BME280;18176;49.502;11.754;2023-04-20T11:58:23;96684.44;;;16.36;42.30
21185;BME280;18176;49.502;11.754;2023-04-20T12:02:26;96677.97;;;16.62;42.08
21185;BME280;18176;49.502;11.754;2023-04-20T12:06:27;96683.75;;;16.84;41.77
21185;BME280;18176;49.502;11.754;2023-04-20T12:10:28;96688.25;;;15.84;43.39
21185;BME280;18176;49.502;11.754;2023-04-20T12:14:32;96676.47;;;16.05;43.38
21185;BME280;18176;49.502;11.754;2023-04-20T12:18:33;96674.78;;;16.35;43.11
21185;BME280;18176;49.502;11.754;2023-04-20T12:22:34;96672.13;;;16.40;42.69
21185;BME280;18176;49.502;11.754;2023-04-20T12:26:34;96681.16;;;16.69;42.25
21185;BME280;18176;49.502;11.754;2023-04-20T12:30:38;96676.66;;;16.39;42.81
21185;BME280;18176;49.502;11.754;2023-04-20T12:34:39;96678.69;;;16.77;42.47
21185;BME280;18176;49.502;11.754;2023-04-20T12:38:39;96668.38;;;16.36;43.16
21185;BME280;18176;49.502;11.754;2023-04-20T12:42:40;96668.88;;;16.58;42.63
21185;BME280;18176;49.502;11.754;2023-04-20T12:46:43;96662.16;;;16.65;42.76
21185;BME280;18176;49.502;11.754;2023-04-20T12:50:44;96655.75;;;16.66;42.45
21185;BME280;18176;49.502;11.754;2023-04-20T12:54:47;96655.22;;;16.59;43.04
21185;BME280;18176;49.502;11.754;2023-04-20T12:58:48;96655.25;;;17.08;42.14
21185;BME280;18176;49.502;11.754;2023-04-20T13:02:52;96645.56;;;17.12;41.78
21185;BME280;18176;49.502;11.754;2023-04-20T13:06:54;96640.13;;;16.83;42.93
21185;BME280;18176;49.502;11.754;2023-04-20T13:10:55;96636.44;;;17.18;42.17
21185;BME280;18176;49.502;11.754;2023-04-20T13:14:56;96628.09;;;18.16;40.60
21185;BME280;18176;49.502;11.754;2023-04-20T13:19:00;96629.63;;;19.44;38.58
21185;BME280;18176;49.502;11.754;2023-04-20T13:23:01;96617.88;;;19.72;38.20
21185;BME280;18176;49.502;11.754;2023-04-20T13:27:02;96616.75;;;19.59;38.02
21185;BME280;18176;49.502;11.754;2023-04-20T13:31:07;96621.66;;;18.64;39.08
21185;BME280;18176;49.502;11.754;2023-04-20T13:35:11;96605.66;;;18.07;40.61
21185;BME280;18176;49.502;11.754;2023-04-20T13:39:13;96619.03;;;18.59;40.06
21185;BME280;18176;49.502;11.754;2023-04-20T13:43:16;96614.81;;;18.90;39.26
21185;BME280;18176;49.502;11.754;2023-04-20T13:47:18;96608.00;;;18.79;39.30
21185;BME280;18176;49.502;11.754;2023-04-20T13:51:21;96596.88;;;19.74;38.73
21185;BME280;18176;49.502;11.754;2023-04-20T13:55:23;96602.41;;;19.64;38.03
21185;BME280;18176;49.502;11.754;2023-04-20T13:59:24;96602.69;;;19.95;38.04
21185;BME280;18176;49.502;11.754;2023-04-20T14:03:26;96603.66;;;19.39;38.50
21185;BME280;18176;49.502;11.754;2023-04-20T14:07:31;96599.81;;;19.08;39.14
21185;BME280;18176;49.502;11.754;2023-04-20T14:11:32;96603.38;;;18.66;39.97
21185;BME280;18176;49.502;11.754;2023-04-20T14:15:33;96596.69;;;19.20;39.44
21185;BME280;18176;49.502;11.754;2023-04-20T14:19:34;96591.25;;;19.57;39.04
21185;BME280;18176;49.502;11.754;2023-04-20T14:23:39;96592.56;;;18.90;40.09
21185;BME280;18176;49.502;11.754;2023-04-20T14:27:40;96589.22;;;18.37;41.10
21185;BME280;18176;49.502;11.754;2023-04-20T14:31:42;96608.50;;;18.39;41.16
21185;BME280;18176;49.502;11.754;2023-04-20T14:35:42;96609.84;;;18.18;41.17
21185;BME280;18176;49.502;11.754;2023-04-20T14:39:46;96625.38;;;17.92;41.84
21185;BME280;18176;49.502;11.754;2023-04-20T14:43:48;96618.88;;;17.98;41.56
21185;BME280;18176;49.502;11.754;2023-04-20T14:47:51;96615.25;;;18.13;41.70
21185;BME280;18176;49.502;11.754;2023-04-20T14:51:53;96621.44;;;17.85;41.84
21185;BME280;18176;49.502;11.754;2023-04-20T14:55:56;96607.13;;;17.94;41.88
21185;BME280;18176;49.502;11.754;2023-04-20T14:59:57;96614.53;;;17.79;42.00
21185;BME280;18176;49.502;11.754;2023-04-20T15:03:58;96615.78;;;17.58;42.64
21185;BME280;18176;49.502;11.754;2023-04-20T15:08:02;96609.19;;;17.45;42.62
21185;BME280;18176;49.502;11.754;2023-04-20T15:12:07;96608.78;;;17.62;42.48
21185;BME280;18176;49.502;11.754;2023-04-20T15:16:08;96619.41;;;17.72;42.30
21185;BME280;18176;49.502;11.754;2023-04-20T15:20:10;96605.41;;;17.80;42.43
21185;BME280;18176;49.502;11.754;2023-04-20T15:24:11;96604.00;;;17.59;42.30
21185;BME280;18176;49.502;11.754;2023-04-20T15:28:15;96600.56;;;17.48;42.83
21185;BME280;18176;49.502;11.754;2023-04-20T15:32:16;96591.00;;;17.42;43.39
21185;BME280;18176;49.502;11.754;2023-04-20T15:36:18;96588.75;;;17.20;43.99
21185;BME280;18176;49.502;11.754;2023-04-20T15:40:19;96587.03;;;17.34;43.41
21185;BME280;18176;49.502;11.754;2023-04-20T15:44:24;96575.88;;;17.85;43.07
21185;BME280;18176;49.502;11.754;2023-04-20T15:48:26;96575.09;;;17.50;43.51
21185;BME280;18176;49.502;11.754;2023-04-20T15:52:28;96564.97;;;17.76;42.99
21185;BME280;18176;49.502;11.754;2023-04-20T15:56:28;96572.53;;;17.69;42.82
21185;BME280;18176;49.502;11.754;2023-04-20T16:00:32;96573.41;;;17.65;43.07
21185;BME280;18176;49.502;11.754;2023-04-20T16:08:33;96558.00;;;17.46;43.74
21185;BME280;18176;49.502;11.754;2023-04-20T16:12:35;96572.06;;;17.91;42.84
21185;BME280;18176;49.502;11.754;2023-04-20T16:16:38;96571.88;;;17.82;43.48
21185;BME280;18176;49.502;11.754;2023-04-20T16:20:39;96580.75;;;17.54;44.05
21185;BME280;18176;49.502;11.754;2023-04-20T16:24:39;96566.56;;;18.01;42.75
21185;BME280;18176;49.502;11.754;2023-04-20T16:28:40;96562.47;;;18.08;43.05
21185;BME280;18176;49.502;11.754;2023-04-20T16:32:44;96558.16;;;17.60;44.01
21185;BME280;18176;49.502;11.754;2023-04-20T16:36:44;96568.72;;;17.46;44.10
21185;BME280;18176;49.502;11.754;2023-04-20T16:40:46;96562.81;;;17.49;44.38
21185;BME280;18176;49.502;11.754;2023-04-20T16:44:48;96566.81;;;17.18;45.46
21185;BME280;18176;49.502;11.754;2023-04-20T16:48:51;96570.41;;;17.37;44.74
21185;BME280;18176;49.502;11.754;2023-04-20T16:52:53;96577.94;;;17.64;44.39
21185;BME280;18176;49.502;11.754;2023-04-20T16:56:54;96581.00;;;17.52;44.95
21185;BME280;18176;49.502;11.754;2023-04-20T17:00:54;96575.53;;;17.68;44.60
21185;BME280;18176;49.502;11.754;2023-04-20T17:04:59;96581.81;;;17.48;44.61
21185;BME280;18176;49.502;11.754;2023-04-20T17:09:00;96569.75;;;17.56;45.05
21185;BME280;18176;49.502;11.754;2023-04-20T17:13:03;96571.88;;;17.59;44.82
21185;BME280;18176;49.502;11.754;2023-04-20T17:17:04;96576.78;;;17.41;44.96
21185;BME280;18176;49.502;11.754;2023-04-20T17:21:09;96566.78;;;17.23;45.81
21185;BME280;18176;49.502;11.754;2023-04-20T17:25:09;96576.16;;;16.87;46.67
21185;BME280;18176;49.502;11.754;2023-04-20T17:29:10;96557.13;;;16.40;48.37
21185;BME280;18176;49.502;11.754;2023-04-20T17:33:11;96572.09;;;16.46;48.74
21185;BME280;18176;49.502;11.754;2023-04-20T17:37:15;96560.94;;;16.24;48.99
21185;BME280;18176;49.502;11.754;2023-04-20T17:41:15;96535.88;;;16.14;48.78
21185;BME280;18176;49.502;11.754;2023-04-20T17:45:17;96560.88;;;16.44;48.66
21185;BME280;18176;49.502;11.754;2023-04-20T17:49:17;96563.63;;;16.24;49.63
21185;BME280;18176;49.502;11.754;2023-04-20T17:53:21;96557.16;;;16.35;49.39
21185;BME280;18176;49.502;11.754;2023-04-20T17:57:21;96561.97;;;16.33;49.44
21185;BME280;18176;49.502;11.754;2023-04-20T18:01:22;96550.34;;;16.03;50.51
21185;BME280;18176;49.502;11.754;2023-04-20T18:05:25;96570.69;;;15.89;50.94
21185;BME280;18176;49.502;11.754;2023-04-20T18:09:29;96571.78;;;15.83;51.21
21185;BME280;18176;49.502;11.754;2023-04-20T18:13:32;96580.88;;;15.82;51.59
21185;BME280;18176;49.502;11.754;2023-04-20T18:17:33;96575.28;;;15.79;51.86
21185;BME280;18176;49.502;11.754;2023-04-20T18:21:38;96578.25;;;15.67;52.45
21185;BME280;18176;49.502;11.754;2023-04-20T18:25:43;96585.69;;;15.75;52.37
21185;BME280;18176;49.502;11.754;2023-04-20T18:29:43;96577.72;;;15.60;52.82
21185;BME280;18176;49.502;11.754;2023-04-20T18:33:49;96573.44;;;15.54;53.30
21185;BME280;18176;49.502;11.754;2023-04-20T18:37:52;96594.28;;;15.37;54.97
21185;BME280;18176;49.502;11.754;2023-04-20T18:41:55;96583.31;;;15.33;53.83
21185;BME280;18176;49.502;11.754;2023-04-20T18:45:57;96584.94;;;15.09;55.14
21185;BME280;18176;49.502;11.754;2023-04-20T18:49:58;96585.22;;;15.08;55.43
21185;BME280;18176;49.502;11.754;2023-04-20T18:54:03;96569.19;;;15.28;54.58
21185;BME280;18176;49.502;11.754;2023-04-20T18:58:09;96584.16;;;15.49;54.19
21185;BME280;18176;49.502;11.754;2023-04-20T19:02:10;96588.13;;;15.57;54.29
21185;BME280;18176;49.502;11.754;2023-04-20T19:06:11;96598.00;;;15.66;53.70
21185;BME280;18176;49.502;11.754;2023-04-20T19:10:13;96602.03;;;15.54;54.41
21185;BME280;18176;49.502;11.754;2023-04-20T19:14:20;96608.72;;;15.46;54.60
21185;BME280;18176;49.502;11.754;2023-04-20T19:18:25;96604.94;;;15.37;54.76
21185;BME280;18176;49.502;11.754;2023-04-20T19:22:25;96607.09;;;15.30;54.34
21185;BME280;18176;49.502;11.754;2023-04-20T19:26:28;96618.53;;;15.15;55.45
21185;BME280;18176;49.502;11.754;2023-04-20T19:30:32;96605.47;;;15.34;54.96
21185;BME280;18176;49.502;11.754;2023-04-20T19:34:36;96613.50;;;15.24;55.78
21185;BME280;18176;49.502;11.754;2023-04-20T19:38:38;96614.00;;;15.16;56.31
21185;BME280;18176;49.502;11.754;2023-04-20T19:42:39;96600.94;;;15.14;56.46
21185;BME280;18176;49.502;11.754;2023-04-20T19:46:43;96620.41;;;15.20;56.51
21185;BME280;18176;49.502;11.754;2023-04-20T19:50:44;96628.69;;;15.38;55.57
21185;BME280;18176;49.502;11.754;2023-04-20T19:54:47;96629.50;;;15.39;55.96
21185;BME280;18176;49.502;11.754;2023-04-20T19:58:48;96623.94;;;15.45;55.62
21185;BME280;18176;49.502;11.754;2023-04-20T20:02:52;96629.53;;;15.49;56.00
21185;BME280;18176;49.502;11.754;2023-04-20T20:06:55;96633.03;;;15.44;56.01
21185;BME280;18176;49.502;11.754;2023-04-20T20:11:02;96632.72;;;15.41;56.27
21185;BME280;18176;49.502;11.754;2023-04-20T20:15:06;96625.25;;;15.48;56.34
21185;BME280;18176;49.502;11.754;2023-04-20T20:19:14;96627.38;;;15.41;56.22
21185;BME280;18176;49.502;11.754;2023-04-20T20:23:18;96648.19;;;15.29;56.48
21185;BME280;18176;49.502;11.754;2023-04-20T20:27:18;96641.50;;;15.36;55.95
21185;BME280;18176;49.502;11.754;2023-04-20T20:31:19;96651.38;;;15.16;56.46
21185;BME280;18176;49.502;11.754;2023-04-20T20:35:25;96637.75;;;15.07;56.32
21185;BME280;18176;49.502;11.754;2023-04-20T20:39:32;96651.38;;;15.16;57.92
21185;BME280;18176;49.502;11.754;2023-04-20T20:43:34;96639.66;;;15.32;57.31
21185;BME280;18176;49.502;11.754;2023-04-20T20:47:42;96634.84;;;15.29;57.08
21185;BME280;18176;49.502;11.754;2023-04-20T20:51:49;96638.03;;;15.21;57.79
21185;BME280;18176;49.502;11.754;2023-04-20T20:55:50;96643.91;;;15.38;56.74
21185;BME280;18176;49.502;11.754;2023-04-20T20:59:56;96635.38;;;15.36;56.62
21185;BME280;18176;49.502;11.754;2023-04-20T21:03:58;96645.78;;;15.12;56.89
21185;BME280;18176;49.502;11.754;2023-04-20T21:08:04;96638.84;;;15.21;57.97
21185;BME280;18176;49.502;11.754;2023-04-20T21:12:08;96633.50;;;15.36;56.77
21185;BME280;18176;49.502;11.754;2023-04-20T21:16:09;96639.09;;;15.20;57.90